createdAt,value
2018-11-11T00:01:34.333Z,17.97
2018-11-11T00:04:02.759Z,16.37
2018-11-11T00:06:31.108Z,16.57
2018-11-11T00:08:59.453Z,16.67
2018-11-11T00:11:27.801Z,18.80
2018-11-11T00:13:56.136Z,17.93
2018-11-11T00:16:24.514Z,16.33
2018-11-11T00:18:52.857Z,16.93
2018-11-11T00:21:21.255Z,16.20
2018-11-11T00:23:50.218Z,15.90
2018-11-11T00:26:18.604Z,14.53
2018-11-11T00:28:47.060Z,16.87
2018-11-11T00:31:15.328Z,15.33
2018-11-11T00:33:43.704Z,16.20
2018-11-11T00:36:12.052Z,14.03
2018-11-11T00:38:40.549Z,15.10
2018-11-11T00:41:08.904Z,16.13
2018-11-11T00:43:37.270Z,15.03
2018-11-11T00:46:05.649Z,12.37
2018-11-11T00:48:34.118Z,12.30
2018-11-11T00:51:02.475Z,11.17
2018-11-11T00:53:30.829Z,12.60
2018-11-11T00:55:59.183Z,11.40
2018-11-11T00:58:27.556Z,11.13
2018-11-11T01:00:55.927Z,10.93
2018-11-11T01:03:24.325Z,10.67
2018-11-11T01:05:52.683Z,10.10
2018-11-11T01:08:21.103Z,10.40
2018-11-11T01:10:49.474Z,10.53
2018-11-11T01:13:17.807Z,10.33
2018-11-11T01:15:46.180Z,10.93
2018-11-11T01:18:14.586Z,11.10
2018-11-11T01:20:42.956Z,11.77
2018-11-11T01:23:11.359Z,10.30
2018-11-11T01:25:39.687Z,11.10
2018-11-11T01:28:07.988Z,11.57
2018-11-11T01:30:36.360Z,11.63
2018-11-11T01:33:04.763Z,12.40
2018-11-11T01:35:33.111Z,12.57
2018-11-11T01:38:01.448Z,12.80
2018-11-11T01:40:29.827Z,12.87
2018-11-11T01:42:58.172Z,13.00
2018-11-11T01:45:26.504Z,12.30
2018-11-11T01:47:54.832Z,11.93
2018-11-11T01:50:23.176Z,12.57
2018-11-11T01:52:51.522Z,12.50
2018-11-11T01:55:19.872Z,13.60
2018-11-11T01:57:48.256Z,13.83
2018-11-11T02:00:18.538Z,12.37
2018-11-11T02:02:47.677Z,12.10
2018-11-11T02:05:16.163Z,12.50
2018-11-11T02:07:45.513Z,13.33
2018-11-11T02:10:13.864Z,12.10
2018-11-11T02:12:43.232Z,12.80
2018-11-11T02:15:12.820Z,12.10
2018-11-11T02:17:41.292Z,11.60
2018-11-11T02:20:11.929Z,11.63
2018-11-11T02:22:40.333Z,11.10
2018-11-11T02:25:09.196Z,10.13
2018-11-11T02:27:37.528Z,11.40
2018-11-11T02:30:07.901Z,10.37
2018-11-11T02:32:36.318Z,10.07
2018-11-11T02:35:04.663Z,10.80
2018-11-11T02:37:33.102Z,10.07
2018-11-11T02:40:01.345Z,10.80
2018-11-11T02:42:29.688Z,10.70
2018-11-11T02:44:58.113Z,10.67
2018-11-11T02:47:26.491Z,10.80
2018-11-11T02:49:54.828Z,10.87
2018-11-11T02:52:23.300Z,11.67
2018-11-11T02:54:51.676Z,10.90
2018-11-11T02:57:20.012Z,11.50
2018-11-11T02:59:48.338Z,11.23
2018-11-11T03:02:16.724Z,9.93
2018-11-11T03:04:45.070Z,10.27
2018-11-11T03:07:13.417Z,10.57
2018-11-11T03:09:41.774Z,9.90
2018-11-11T03:12:10.079Z,10.33
2018-11-11T03:14:38.391Z,10.83
2018-11-11T03:17:07.636Z,10.40
2018-11-11T03:19:35.985Z,10.57
2018-11-11T03:22:04.376Z,10.00
2018-11-11T03:24:32.744Z,10.33
2018-11-11T03:27:01.079Z,10.80
2018-11-11T03:29:29.401Z,9.93
2018-11-11T03:31:57.773Z,9.20
2018-11-11T03:34:26.120Z,8.90
2018-11-11T03:36:54.476Z,9.63
2018-11-11T03:39:22.812Z,9.70
2018-11-11T03:41:51.156Z,10.00
2018-11-11T03:44:19.530Z,9.97
2018-11-11T03:46:47.882Z,9.80
2018-11-11T03:49:16.243Z,9.40
2018-11-11T03:51:44.584Z,9.37
2018-11-11T03:54:12.925Z,9.50
2018-11-11T03:56:41.234Z,9.53
2018-11-11T03:59:09.585Z,9.50
2018-11-11T04:01:37.952Z,10.47
2018-11-11T04:04:06.329Z,9.27
2018-11-11T04:06:34.672Z,8.70
2018-11-11T04:09:03.092Z,9.10
2018-11-11T04:11:31.409Z,9.10
2018-11-11T04:13:59.820Z,10.13
2018-11-11T04:16:28.196Z,9.93
2018-11-11T04:18:56.528Z,9.80
2018-11-11T04:21:24.880Z,9.70
2018-11-11T04:23:53.187Z,10.50
2018-11-11T04:26:21.538Z,10.93
2018-11-11T04:28:49.909Z,10.47
2018-11-11T04:31:18.256Z,10.73
2018-11-11T04:33:46.590Z,9.33
2018-11-11T04:36:14.924Z,10.33
2018-11-11T04:38:43.228Z,10.40
2018-11-11T04:41:11.552Z,9.87
2018-11-11T04:43:39.877Z,10.97
2018-11-11T04:46:08.256Z,9.47
2018-11-11T04:48:36.570Z,10.27
2018-11-11T04:51:05.005Z,10.37
2018-11-11T04:53:33.359Z,10.30
2018-11-11T04:56:01.710Z,9.37
2018-11-11T04:58:30.072Z,9.43
2018-11-11T05:00:58.411Z,9.80
2018-11-11T05:03:26.769Z,9.80
2018-11-11T05:05:55.127Z,11.20
2018-11-11T05:08:23.504Z,9.73
2018-11-11T05:10:51.864Z,11.30
2018-11-11T05:13:20.236Z,10.90
2018-11-11T05:15:48.619Z,10.10
2018-11-11T05:18:16.963Z,10.10
2018-11-11T05:20:45.332Z,10.03
2018-11-11T05:23:13.655Z,10.77
2018-11-11T05:25:42.018Z,10.30
2018-11-11T05:28:10.376Z,10.07
2018-11-11T05:30:38.728Z,9.67
2018-11-11T05:33:07.093Z,10.63
2018-11-11T05:35:35.428Z,10.00
2018-11-11T05:38:03.803Z,9.87
2018-11-11T05:40:32.171Z,9.20
2018-11-11T05:43:00.531Z,9.27
2018-11-11T05:45:28.864Z,9.50
2018-11-11T05:47:57.197Z,9.37
2018-11-11T05:50:25.533Z,9.73
2018-11-11T05:52:53.883Z,11.20
2018-11-11T05:55:22.236Z,10.50
2018-11-11T05:57:50.563Z,12.13
2018-11-11T06:00:18.957Z,11.93
2018-11-11T06:02:47.281Z,16.50
2018-11-11T06:05:16.095Z,18.10
2018-11-11T06:07:44.440Z,14.80
2018-11-11T06:10:13.874Z,13.50
2018-11-11T06:12:42.225Z,14.00
2018-11-11T06:15:11.558Z,15.17
2018-11-11T06:17:39.923Z,14.13
2018-11-11T06:20:10.727Z,14.50
2018-11-11T06:22:39.031Z,15.03
2018-11-11T06:25:07.685Z,13.73
2018-11-11T06:27:36.121Z,15.10
2018-11-11T06:30:04.945Z,14.07
2018-11-11T06:32:33.302Z,13.80
2018-11-11T06:35:01.675Z,13.13
2018-11-11T06:37:30.006Z,12.83
2018-11-11T06:39:58.339Z,12.67
2018-11-11T06:42:26.746Z,11.30
2018-11-11T06:44:55.065Z,11.27
2018-11-11T06:47:23.416Z,10.30
2018-11-11T06:49:51.772Z,11.53
2018-11-11T06:52:20.221Z,10.83
2018-11-11T06:54:48.586Z,11.77
2018-11-11T06:57:16.964Z,10.33
2018-11-11T06:59:45.327Z,10.70
2018-11-11T07:02:13.679Z,8.50
2018-11-11T07:04:42.033Z,7.97
2018-11-11T07:07:10.373Z,8.70
2018-11-11T07:09:38.733Z,7.87
2018-11-11T07:12:07.084Z,7.33
2018-11-11T07:14:35.401Z,6.80
2018-11-11T07:17:03.769Z,7.10
2018-11-11T07:19:32.122Z,5.90
2018-11-11T07:22:00.430Z,6.60
2018-11-11T07:24:28.777Z,6.40
2018-11-11T07:26:57.129Z,6.50
2018-11-11T07:29:25.472Z,6.60
2018-11-11T07:31:53.802Z,7.50
2018-11-11T07:34:22.186Z,6.70
2018-11-11T07:36:50.517Z,7.27
2018-11-11T07:39:18.861Z,7.03
2018-11-11T07:41:47.245Z,7.40
2018-11-11T07:44:15.604Z,7.20
2018-11-11T07:46:43.969Z,8.17
2018-11-11T07:49:12.324Z,7.43
2018-11-11T07:51:40.686Z,7.80
2018-11-11T07:54:09.033Z,8.23
2018-11-11T07:56:37.387Z,7.93
2018-11-11T07:59:06.008Z,8.47
2018-11-11T08:01:34.490Z,6.90
2018-11-11T08:04:02.760Z,6.77
2018-11-11T08:06:31.184Z,6.70
2018-11-11T08:08:59.555Z,6.70
2018-11-11T08:11:39.360Z,6.80
2018-11-11T08:14:07.816Z,7.27
2018-11-11T08:16:36.171Z,6.80
2018-11-11T08:19:04.521Z,8.30
2018-11-11T08:21:32.869Z,11.97
2018-11-11T08:24:01.467Z,15.83
2018-11-11T08:26:29.968Z,8.20
2018-11-11T08:28:58.997Z,4.83
2018-11-11T08:31:29.620Z,4.27
2018-11-11T08:33:58.095Z,3.37
2018-11-11T08:36:26.417Z,3.90
2018-11-11T08:38:54.799Z,3.30
2018-11-11T08:41:23.173Z,2.93
2018-11-11T08:43:51.540Z,3.00
2018-11-11T08:46:19.928Z,3.07
2018-11-11T08:48:48.328Z,2.63
2018-11-11T08:51:16.733Z,2.70
2018-11-11T08:53:45.054Z,2.90
2018-11-11T08:56:13.445Z,2.77
2018-11-11T08:58:41.871Z,3.07
2018-11-11T09:01:10.241Z,3.20
2018-11-11T09:03:38.691Z,2.70
2018-11-11T09:06:07.084Z,2.80
2018-11-11T09:08:35.443Z,2.60
2018-11-11T09:11:03.868Z,3.40
2018-11-11T09:13:32.239Z,2.90
2018-11-11T09:16:00.688Z,2.47
2018-11-11T09:18:29.109Z,2.40
2018-11-11T09:20:57.659Z,2.73
2018-11-11T09:23:26.066Z,3.13
2018-11-11T09:25:54.481Z,2.10
2018-11-11T09:28:22.869Z,2.70
2018-11-11T09:30:51.254Z,2.00
2018-11-11T09:33:19.620Z,2.20
2018-11-11T09:35:48.021Z,1.50
2018-11-11T09:38:16.398Z,1.90
2018-11-11T09:40:44.756Z,1.63
2018-11-11T09:43:13.144Z,1.53
2018-11-11T09:45:41.495Z,1.40
2018-11-11T09:48:09.908Z,1.37
2018-11-11T09:50:38.414Z,1.43
2018-11-11T09:53:06.809Z,1.40
2018-11-11T09:55:35.204Z,1.57
2018-11-11T09:58:03.601Z,1.23
2018-11-11T10:00:31.972Z,0.90
2018-11-11T10:03:18.132Z,1.30
2018-11-11T10:05:58.844Z,1.87
2018-11-11T10:08:34.188Z,0.90
2018-11-11T10:11:37.384Z,1.20
2018-11-11T10:14:23.309Z,1.40
2018-11-11T10:19:02.508Z,1.20
2018-11-11T10:21:34.768Z,1.20
2018-11-11T10:24:38.807Z,1.10
2018-11-11T10:29:13.703Z,0.87
2018-11-11T10:31:54.484Z,0.93
2018-11-11T10:34:33.222Z,1.20
2018-11-11T10:37:06.099Z,0.80
2018-11-11T10:39:45.504Z,0.63
2018-11-11T10:42:30.138Z,0.93
2018-11-11T10:46:05.990Z,0.90
2018-11-11T10:48:39.714Z,0.67
2018-11-11T10:51:08.160Z,0.70
2018-11-11T10:53:36.862Z,0.83
2018-11-11T10:56:10.420Z,0.70
2018-11-11T10:58:39.228Z,0.70
2018-11-11T11:01:13.325Z,0.70
2018-11-11T11:03:41.780Z,1.30
2018-11-11T11:06:10.214Z,0.63
2018-11-11T11:08:42.835Z,0.80
2018-11-11T11:11:11.204Z,0.70
2018-11-11T11:13:39.770Z,1.03
2018-11-11T11:16:08.245Z,0.73
2018-11-11T11:18:36.644Z,0.87
2018-11-11T11:21:05.141Z,1.37
2018-11-11T11:23:33.657Z,0.90
2018-11-11T11:26:02.369Z,1.03
2018-11-11T11:28:30.906Z,0.90
2018-11-11T11:30:59.256Z,1.00
2018-11-11T11:33:27.713Z,1.37
2018-11-11T11:41:42.988Z,1.00
2018-11-11T11:44:18.765Z,1.27
2018-11-11T11:46:47.889Z,1.10
2018-11-11T11:49:18.069Z,1.27
2018-11-11T11:51:53.860Z,0.87
2018-11-11T11:54:28.402Z,1.20
2018-11-11T11:56:58.283Z,1.17
2018-11-11T11:59:28.625Z,0.90
2018-11-11T12:01:57.674Z,1.10
2018-11-11T12:04:26.690Z,1.10
2018-11-11T12:06:56.198Z,1.37
2018-11-11T12:09:24.866Z,1.10
2018-11-11T12:11:54.390Z,0.90
2018-11-11T12:14:23.279Z,1.20
2018-11-11T12:16:52.242Z,1.17
2018-11-11T12:19:21.788Z,1.20
2018-11-11T12:21:52.409Z,1.00
2018-11-11T12:24:21.923Z,1.20
2018-11-11T12:26:50.792Z,1.20
2018-11-11T12:29:19.583Z,1.00
2018-11-11T12:31:48.402Z,1.10
2018-11-11T12:34:16.964Z,1.60
2018-11-11T12:36:45.533Z,2.70
2018-11-11T12:39:14.380Z,1.60
2018-11-11T12:41:42.882Z,2.57
2018-11-11T12:44:11.551Z,2.10
2018-11-11T12:46:40.052Z,2.10
2018-11-11T12:52:23.605Z,17.90
2018-11-11T13:17:55.732Z,1.33
2018-11-11T13:20:24.229Z,0.80
2018-11-11T13:22:52.980Z,1.20
2018-11-11T13:25:21.274Z,0.97
2018-11-11T13:27:49.654Z,1.10
2018-11-11T13:30:18.057Z,1.33
2018-11-11T13:32:46.439Z,1.00
2018-11-11T13:35:15.726Z,1.10
2018-11-11T13:37:44.142Z,1.30
2018-11-11T13:40:14.784Z,1.13
2018-11-11T13:42:43.215Z,1.10
2018-11-11T13:45:14.301Z,1.23
2018-11-11T13:47:43.756Z,0.93
2018-11-11T13:50:14.586Z,0.83
2018-11-11T13:52:43.500Z,1.10
2018-11-11T13:55:12.511Z,1.20
2018-11-11T13:57:41.473Z,1.20
2018-11-11T14:00:13.991Z,1.00
2018-11-11T14:02:42.384Z,1.30
2018-11-11T14:05:10.814Z,1.60
2018-11-11T14:07:39.215Z,1.40
2018-11-11T14:10:08.890Z,1.73
2018-11-11T14:12:37.902Z,1.17
2018-11-11T14:15:08.535Z,1.00
2018-11-11T14:17:37.001Z,1.50
2018-11-11T14:20:06.615Z,0.80
2018-11-11T14:22:35.071Z,0.90
2018-11-11T14:25:03.529Z,0.80
2018-11-11T14:27:32.011Z,1.10
2018-11-11T14:30:00.430Z,1.20
2018-11-11T14:32:28.906Z,0.73
2018-11-11T14:34:57.173Z,1.23
2018-11-11T14:37:25.777Z,0.90
2018-11-11T14:39:54.457Z,1.10
2018-11-11T14:42:22.792Z,1.00
2018-11-11T14:44:51.216Z,1.00
2018-11-11T14:47:19.935Z,0.87
2018-11-11T14:49:48.306Z,0.80
2018-11-11T14:52:16.820Z,1.27
2018-11-11T14:54:45.147Z,0.90
2018-11-11T15:17:27.033Z,0.70
2018-11-11T15:19:56.433Z,0.70
2018-11-11T15:22:24.969Z,0.70
2018-11-11T15:24:53.387Z,0.70
2018-11-11T15:27:23.023Z,1.00
2018-11-11T15:29:52.225Z,0.73
2018-11-11T15:32:20.889Z,0.90
2018-11-11T15:34:49.362Z,1.00
2018-11-11T15:37:20.116Z,0.87
2018-11-11T15:39:49.005Z,0.90
2018-11-11T15:42:17.442Z,0.93
2018-11-11T15:44:45.873Z,0.90
2018-11-11T15:47:14.241Z,0.90
2018-11-11T15:49:42.661Z,1.40
2018-11-11T15:52:11.986Z,0.80
2018-11-11T15:54:40.758Z,1.00
2018-11-11T15:57:09.309Z,1.30
2018-11-11T15:59:37.751Z,1.43
2018-11-11T16:02:06.260Z,13.83
2018-11-11T16:04:34.616Z,3.87
2018-11-11T16:07:03.038Z,3.23
2018-11-11T16:09:31.844Z,2.13
2018-11-11T16:12:00.726Z,1.30
2018-11-11T16:14:29.348Z,1.47
2018-11-11T16:49:11.680Z,2.00
2018-11-11T16:51:40.091Z,5.03
2018-11-11T16:54:08.541Z,4.63
2018-11-11T16:56:36.878Z,4.80
2018-11-11T16:59:05.942Z,5.00
2018-11-11T17:01:34.421Z,3.60
2018-11-11T17:04:03.120Z,3.27
2018-11-11T17:06:31.621Z,2.60
2018-11-11T17:09:00.192Z,2.73
2018-11-11T17:11:28.652Z,2.13
2018-11-11T17:13:57.269Z,1.53
2018-11-11T17:16:25.689Z,2.10
2018-11-11T17:18:54.136Z,1.90
2018-11-11T17:21:22.534Z,2.37
2018-11-11T17:23:51.043Z,2.10
2018-11-11T17:26:19.453Z,1.87
2018-11-11T17:28:48.069Z,2.40
2018-11-11T17:31:17.099Z,2.00
2018-11-11T17:33:45.740Z,2.13
2018-11-11T17:36:14.216Z,2.47
2018-11-11T17:38:42.724Z,2.27
2018-11-11T17:41:11.113Z,2.40
2018-11-11T17:43:39.490Z,2.47
2018-11-11T17:46:07.952Z,2.70
2018-11-11T17:48:36.341Z,2.50
2018-11-11T17:51:04.857Z,2.23
2018-11-11T17:53:33.281Z,2.13
2018-11-11T17:56:01.844Z,2.13
2018-11-11T17:58:31.308Z,2.63
2018-11-11T18:00:59.938Z,2.53
2018-11-11T18:03:28.373Z,2.60
2018-11-11T18:05:58.426Z,2.80
2018-11-11T18:08:26.983Z,2.50
2018-11-11T18:10:55.425Z,2.33
2018-11-11T18:13:23.855Z,2.30
2018-11-11T18:15:52.310Z,2.10
2018-11-11T18:18:20.779Z,2.53
2018-11-11T18:20:49.224Z,2.93
2018-11-11T18:23:17.891Z,2.07
2018-11-11T18:25:48.566Z,2.60
2018-11-11T18:28:16.987Z,2.07
2018-11-11T18:30:45.407Z,1.77
2018-11-11T18:33:13.797Z,2.27
2018-11-11T18:35:42.278Z,1.97
2018-11-11T18:38:10.783Z,2.80
2018-11-11T18:40:39.277Z,3.63
2018-11-11T18:43:07.707Z,3.93
2018-11-11T18:45:36.144Z,3.90
2018-11-11T18:48:04.938Z,2.50
2018-11-11T18:50:33.873Z,2.50
2018-11-11T18:53:03.110Z,1.87
2018-11-11T18:55:31.623Z,2.40
2018-11-11T18:58:00.320Z,2.70
2018-11-11T19:00:30.280Z,2.57
2018-11-11T19:02:58.821Z,2.43
2018-11-11T19:05:27.647Z,2.47
2018-11-11T19:07:56.225Z,2.67
2018-11-11T19:10:26.912Z,2.30
2018-11-11T19:12:56.891Z,2.40
2018-11-11T19:15:25.328Z,2.43
2018-11-11T19:17:54.115Z,2.50
2018-11-11T19:20:23.498Z,2.50
2018-11-11T19:22:51.899Z,2.90
2018-11-11T19:25:21.559Z,2.30
2018-11-11T19:27:50.984Z,2.60
2018-11-11T19:30:20.440Z,2.20
2018-11-11T19:32:49.434Z,2.70
2018-11-11T19:35:18.235Z,2.30
2018-11-11T19:37:48.830Z,2.30
2018-11-11T19:40:19.422Z,2.50
2018-11-11T19:42:48.066Z,2.30
2018-11-11T19:45:17.929Z,2.57
2018-11-11T19:47:46.415Z,2.37
2018-11-11T19:50:17.177Z,2.60
2018-11-11T19:52:46.824Z,2.10
2018-11-11T19:55:15.910Z,2.10
2018-11-11T19:57:44.366Z,2.57
2018-11-11T20:00:15.010Z,2.50
2018-11-11T20:02:44.928Z,2.53
2018-11-11T20:05:14.235Z,2.40
2018-11-11T20:07:43.928Z,2.50
2018-11-11T20:10:13.728Z,2.40
2018-11-11T20:12:42.449Z,3.10
2018-11-11T20:15:13.051Z,2.30
2018-11-11T20:17:42.239Z,2.40
2018-11-11T20:20:14.912Z,2.13
2018-11-11T20:22:43.417Z,2.10
2018-11-11T20:25:13.208Z,2.23
2018-11-11T20:27:42.050Z,3.30
2018-11-11T20:30:15.681Z,2.77
2018-11-11T20:32:44.217Z,3.73
2018-11-11T20:35:13.978Z,3.97
2018-11-11T20:37:42.554Z,5.07
2018-11-11T20:40:14.303Z,4.17
2018-11-11T20:42:43.444Z,4.10
2018-11-11T20:45:12.822Z,4.10
2018-11-11T20:47:42.158Z,4.73
2018-11-11T20:50:13.110Z,4.67
2018-11-11T20:52:42.532Z,4.93
2018-11-11T20:55:11.751Z,4.43
2018-11-11T20:57:40.724Z,4.90
2018-11-11T21:00:13.537Z,4.63
2018-11-11T21:02:42.474Z,4.70
2018-11-11T21:05:13.287Z,4.30
2018-11-11T21:07:42.913Z,4.73
2018-11-11T21:10:16.601Z,5.60
2018-11-11T21:12:45.795Z,5.60
2018-11-11T21:15:15.360Z,6.37
2018-11-11T21:17:44.814Z,6.43
2018-11-11T21:20:15.194Z,6.73
2018-11-11T21:22:44.406Z,6.43
2018-11-11T21:25:14.027Z,6.77
2018-11-11T21:27:43.799Z,6.17
2018-11-11T21:30:22.187Z,5.40
2018-11-11T21:32:51.275Z,5.37
2018-11-11T21:35:19.950Z,5.27
2018-11-11T21:37:49.191Z,6.03
2018-11-11T21:40:19.649Z,5.80
2018-11-11T21:42:49.442Z,4.80
2018-11-11T21:45:19.342Z,5.77
2018-11-11T21:47:48.533Z,4.80
2018-11-11T21:50:18.492Z,5.30
2018-11-11T21:52:55.889Z,4.10
2018-11-11T21:55:25.219Z,3.80
2018-11-11T21:57:53.753Z,3.97
2018-11-11T22:00:22.898Z,4.20
2018-11-11T22:02:52.181Z,3.70
2018-11-11T22:05:20.818Z,3.97
2018-11-11T22:07:50.275Z,3.63
2018-11-11T22:10:19.352Z,3.70
2018-11-11T22:12:48.361Z,3.33
2018-11-11T22:15:17.496Z,3.53
2018-11-11T22:17:46.187Z,3.80
2018-11-11T22:20:15.172Z,3.67
2018-11-11T22:22:43.567Z,3.40
2018-11-11T22:25:12.029Z,4.20
2018-11-11T22:27:40.396Z,3.50
2018-11-11T22:30:10.086Z,4.83
2018-11-11T22:32:38.882Z,17.60
2018-11-11T22:35:08.224Z,14.57
2018-11-11T22:37:36.683Z,9.70
2018-11-11T22:40:06.971Z,9.17
2018-11-11T22:42:35.761Z,9.10
2018-11-11T22:45:05.021Z,8.27
2018-11-11T22:47:33.481Z,5.87
2018-11-11T22:50:02.028Z,6.07
2018-11-11T22:52:30.597Z,6.97
2018-11-11T22:54:59.000Z,6.23
2018-11-11T22:57:27.462Z,8.70
2018-11-11T22:59:56.004Z,7.10
2018-11-11T23:02:24.448Z,6.00
2018-11-11T23:04:53.063Z,5.37
2018-11-11T23:07:21.555Z,5.80
2018-11-11T23:09:50.268Z,6.17
2018-11-11T23:12:18.721Z,6.43
2018-11-11T23:14:47.200Z,6.23
2018-11-11T23:17:15.632Z,6.00
2018-11-11T23:19:44.370Z,5.87
2018-11-11T23:22:13.005Z,5.77
2018-11-11T23:24:41.609Z,5.63
2018-11-11T23:27:10.098Z,4.90
2018-11-11T23:29:38.626Z,5.03
2018-11-11T23:32:07.288Z,5.30
2018-11-11T23:34:36.013Z,5.50
2018-11-11T23:37:04.662Z,5.07
2018-11-11T23:39:33.017Z,5.10
2018-11-11T23:42:01.527Z,5.30
2018-11-11T23:44:30.217Z,5.57
2018-11-11T23:46:59.072Z,4.67
2018-11-11T23:49:27.996Z,5.10
2018-11-11T23:51:57.056Z,5.30
2018-11-11T23:54:25.880Z,4.40
2018-11-11T23:56:54.601Z,4.20
2018-11-11T23:59:23.301Z,5.07
